Pagina principale
METAR-TAF:

METAR-TAF

Aeroporti :

Natal, Rio Grande do Norte, Brasile

latitudine: 05-46-05S, longitudine: 035-22-34W, altezza: 88 m

Osservazione

Il bollettino è stato emesso 50 minuti fa, alle 05:00 UTC
Vento 2 kt da direzioni variabili
Temperature 26°C
Umidità 84%
Pressione 1012 hPa
Visibilità 10 km o più
Nuvoloso ad un'altezza di 1700 ft

METAR: SBSG 160500Z VRB02KT 9999 BKN017 26/23 Q1012

Ora: 02:50 (05:50 UTC)

Previsione

Il bollettino è stato emesso 3 ore e 50 minuti fa, alle 02:00 UTC
Previsione valida dal 16 alle 06 UTC al 17 alle 06 UTC
Vento 4 kt da sud/sud-ovest
Visibilità 10 km o più
Nubi sparse ad un'altezza di 1900 ft
Evoluzione graduale
dal 16 alle 11 UTC al 16 alle 12 UTC
Vento 15 kt da sud/sud-est
Evoluzione graduale
dal 16 alle 21 UTC al 16 alle 22 UTC
Vento 8 kt da sud/sud-est

TAF: SBSG 160200Z 1606/1706 21004KT 9999 SCT019 TN24/1608Z TX30/1615Z BECMG 1611/1612 15015KT BECMG 1621/1622 16008KT RMK PBO

Osservazioni e previsioni meteorologiche di più di 4000 aeroporti (messaggi METAR e TAF).

Le stazioni disponibili sono rappresentate dai dischi gialli e rossi sulla carta.

Puntare il mouse per vedere il nome della stazione.

Clicca sopra per visualizzare le osservazioni e previsioni meteorologiche.

Per cambiare la mappa : fare clic sui pulsanti verdi con una croce nera per ingrandire, il pulsante verde con un trattino per diminuire, o sulla freccia verde per le mappe adiacenti.


METAR-TAF: